Time;durP1;ratioP1;P1;durP2;ratioP2;P2;SDS_P1;SDS_P2;PMS_P1;PMS_P2;Temp;Humidity;BMP_temperature;BMP_pressure;BME280_temperature;BME280_humidity;BME280_pressure;Samples;Min_cycle;Max_cycle;Signal;HPM_P1;HPM_P2
2022/04/03 00:01:30;;;;;;;5.28;2.60;;;;;;;5.51;44.17;102214.16;5054206;28;20558;-63
2022/04/03 00:03:56;;;;;;;3.88;2.65;;;;;;;5.49;44.13;102208.00;5063640;28;20055;-63
2022/04/03 00:06:23;;;;;;;3.08;2.05;;;;;;;5.48;44.11;102214.25;5074081;28;20048;-63
2022/04/03 00:08:50;;;;;;;6.78;2.40;;;;;;;5.46;44.15;102216.06;5073640;28;20041;-63
2022/04/03 00:11:16;;;;;;;3.60;2.40;;;;;;;5.43;44.31;102206.38;5056020;28;20429;-64
2022/04/03 00:13:43;;;;;;;6.65;2.90;;;;;;;5.42;44.27;102214.41;5074097;28;20044;-64
2022/04/03 00:16:11;;;;;;;5.18;2.42;;;;;;;5.38;44.26;102208.28;5073770;28;20075;-63
2022/04/03 00:18:38;;;;;;;3.58;2.33;;;;;;;5.34;44.01;102211.97;5072692;28;20063;-64
2022/04/03 00:21:04;;;;;;;3.28;2.30;;;;;;;5.33;44.30;102209.34;5055696;28;20524;-64
2022/04/03 00:23:31;;;;;;;3.97;2.40;;;;;;;5.30;44.45;102209.44;5055691;28;20401;-64
2022/04/03 00:25:58;;;;;;;4.68;3.00;;;;;;;5.27;44.32;102205.06;5073664;28;20452;-64
2022/04/03 00:28:28;;;;;;;3.63;2.65;;;;;;;5.24;44.40;102210.47;5055396;28;20417;-64
2022/04/03 00:30:55;;;;;;;3.67;2.30;;;;;;;5.22;44.29;102203.44;5073425;28;20405;-63
2022/04/03 00:33:24;;;;;;;4.65;2.63;;;;;;;5.18;44.37;102205.28;5073836;28;20390;-64
2022/04/03 00:35:51;;;;;;;5.85;2.65;;;;;;;5.15;44.56;102196.50;5073322;28;20044;-65
2022/04/03 00:38:18;;;;;;;5.05;2.95;;;;;;;5.14;44.56;102200.06;5072051;28;20048;-64
2022/04/03 00:40:46;;;;;;;3.92;2.50;;;;;;;5.10;44.68;102202.81;5071849;28;20044;-64
2022/04/03 00:43:13;;;;;;;6.10;2.67;;;;;;;5.08;44.66;102204.66;5072236;28;20036;-63
2022/04/03 00:45:44;;;;;;;3.58;2.70;;;;;;;5.05;44.60;102206.53;5055774;28;20490;-63
2022/04/03 00:48:11;;;;;;;3.85;2.80;;;;;;;5.02;44.76;102219.91;5072176;28;20036;-64
2022/04/03 00:50:42;;;;;;;4.03;2.63;;;;;;;4.98;44.51;102208.47;5072850;28;20049;-63
2022/04/03 00:53:08;;;;;;;4.13;2.50;;;;;;;4.95;44.54;102205.88;5072791;28;20496;-63
2022/04/03 00:55:35;;;;;;;3.83;2.22;;;;;;;4.94;44.58;102209.47;5072911;28;20102;-63
2022/04/03 00:58:02;;;;;;;3.42;2.35;;;;;;;4.90;44.56;102209.59;5073048;28;20410;-63
2022/04/03 01:00:29;;;;;;;3.55;2.42;;;;;;;4.83;44.53;102203.53;5072270;28;20033;-63
2022/04/03 01:02:55;;;;;;;5.28;2.63;;;;;;;4.78;44.60;102210.78;5073288;28;20438;-64
2022/04/03 01:05:23;;;;;;;4.65;2.72;;;;;;;4.70;44.74;102216.28;5073298;28;20041;-63
2022/04/03 01:07:49;;;;;;;5.20;2.55;;;;;;;4.67;44.97;102212.81;5066661;28;20045;-63
2022/04/03 01:10:16;;;;;;;3.83;2.45;;;;;;;4.64;44.98;102208.47;5053072;28;20124;-62
2022/04/03 01:12:46;;;;;;;3.90;2.47;;;;;;;4.66;45.16;102209.28;5069838;28;20055;-63
2022/04/03 01:15:18;;;;;;;3.17;2.33;;;;;;;4.65;45.06;102201.34;5064322;28;20041;-63
2022/04/03 01:17:45;;;;;;;6.85;2.78;;;;;;;4.65;45.17;102209.31;5052758;28;20049;-64
2022/04/03 01:20:12;;;;;;;3.78;2.60;;;;;;;4.63;45.02;102211.16;5064116;28;20398;-63
2022/04/03 01:22:39;;;;;;;9.68;4.15;;;;;;;4.61;45.01;102207.66;5072302;28;20056;-63
2022/04/03 01:25:09;;;;;;;6.50;2.83;;;;;;;4.60;45.30;102211.22;5073213;28;20372;-63
2022/04/03 01:27:36;;;;;;;5.88;2.83;;;;;;;4.60;45.33;102219.22;5072780;28;20056;-63
2022/04/03 01:30:04;;;;;;;6.47;2.90;;;;;;;4.60;45.09;102216.56;5072859;28;20094;-63
2022/04/03 01:32:31;;;;;;;8.02;2.83;;;;;;;4.57;45.21;102208.66;5072789;28;20072;-63
2022/04/03 01:34:57;;;;;;;8.48;2.95;;;;;;;4.53;45.30;102205.19;5070826;28;20094;-62
2022/04/03 01:37:24;;;;;;;5.63;2.50;;;;;;;4.47;45.43;102208.88;5072643;28;20036;-63
2022/04/03 01:39:51;;;;;;;6.28;2.88;;;;;;;4.44;45.48;102213.34;5055148;28;20044;-63
2022/04/03 01:42:19;;;;;;;4.28;2.78;;;;;;;4.39;45.59;102205.47;5072804;28;20040;-63
2022/04/03 01:44:46;;;;;;;4.90;2.80;;;;;;;4.39;45.30;102207.28;5072513;28;20028;-63
2022/04/03 01:47:13;;;;;;;4.90;2.75;;;;;;;4.40;45.59;102198.38;5072374;28;20056;-62
2022/04/03 01:49:40;;;;;;;4.82;2.67;;;;;;;4.41;45.62;102197.47;5072672;28;20041;-64
2022/04/03 01:52:06;;;;;;;4.07;2.63;;;;;;;4.41;45.67;102195.69;5072918;28;20049;-63
2022/04/03 01:54:33;;;;;;;7.45;3.03;;;;;;;4.41;45.51;102195.69;5072903;28;20047;-63
2022/04/03 01:56:59;;;;;;;8.38;2.88;;;;;;;4.41;45.64;102198.34;5070705;28;20048;-62
2022/04/03 01:59:26;;;;;;;5.95;3.40;;;;;;;4.42;45.59;102200.09;5071360;28;20398;-63
2022/04/03 02:01:54;;;;;;;4.57;2.90;;;;;;;4.41;45.57;102195.69;5076209;28;20041;-62
2022/04/03 02:04:21;;;;;;;4.93;2.42;;;;;;;4.41;45.49;102198.34;5076304;28;20406;-63
2022/04/03 02:06:48;;;;;;;5.05;2.67;;;;;;;4.39;45.68;102194.84;5058556;28;20090;-63
2022/04/03 02:09:14;;;;;;;6.57;3.13;;;;;;;4.38;45.60;102193.09;5058141;28;20124;-63
2022/04/03 02:11:41;;;;;;;4.93;3.10;;;;;;;4.37;45.50;102196.66;5075742;28;20059;-62
2022/04/03 02:14:07;;;;;;;4.53;3.00;;;;;;;4.36;45.67;102196.72;5076038;28;20037;-63
2022/04/03 02:16:34;;;;;;;7.00;3.15;;;;;;;4.34;45.44;102195.88;5073718;28;20036;-62
2022/04/03 02:19:01;;;;;;;3.92;2.65;;;;;;;4.32;45.63;102195.03;5075719;28;20127;-63
2022/04/03 02:21:27;;;;;;;5.10;2.92;;;;;;;4.28;45.58;102204.88;5075782;28;20041;-63
2022/04/03 02:23:54;;;;;;;6.50;3.30;;;;;;;4.25;45.78;102199.63;5076038;28;20073;-63
2022/04/03 02:26:21;;;;;;;5.25;3.00;;;;;;;4.23;45.82;102198.78;5075729;28;20041;-63
2022/04/03 02:28:47;;;;;;;4.78;2.92;;;;;;;4.19;45.71;102199.75;5057900;28;20044;-63
2022/04/03 02:31:14;;;;;;;6.25;3.55;;;;;;;4.18;45.80;102194.47;5074349;28;20129;-63
2022/04/03 02:33:41;;;;;;;5.72;3.38;;;;;;;4.15;46.08;102201.63;5075724;28;20510;-62
2022/04/03 02:36:07;;;;;;;6.32;2.95;;;;;;;4.13;45.83;102198.13;5059920;28;20410;-63
2022/04/03 02:38:34;;;;;;;5.90;3.97;;;;;;;4.11;46.07;102199.06;5055471;28;20055;-62
2022/04/03 02:41:00;;;;;;;7.00;3.83;;;;;;;4.07;46.12;102194.72;5055631;28;20099;-63
2022/04/03 02:43:28;;;;;;;9.95;3.30;;;;;;;4.05;46.10;102191.22;5054327;28;20041;-63
2022/04/03 02:45:55;;;;;;;5.60;3.75;;;;;;;4.03;46.21;102193.91;5055518;28;20459;-63
2022/04/03 02:48:22;;;;;;;9.55;3.88;;;;;;;4.00;46.34;102206.41;5055293;28;20049;-63
2022/04/03 02:50:48;;;;;;;5.88;3.42;;;;;;;3.96;46.40;102202.06;5040782;28;20090;-63
2022/04/03 02:53:15;;;;;;;6.20;4.03;;;;;;;3.94;46.28;102198.56;5074813;28;20033;-62
2022/04/03 02:55:42;;;;;;;7.43;3.95;;;;;;;3.93;46.34;102194.16;5075331;28;20047;-62
2022/04/03 02:58:09;;;;;;;6.38;3.95;;;;;;;3.93;46.29;102202.13;5057245;28;20048;-63
2022/04/03 03:00:35;;;;;;;6.85;3.40;;;;;;;3.93;46.38;102204.78;5075921;28;20044;-63
2022/04/03 03:03:04;;;;;;;4.82;3.28;;;;;;;3.92;46.44;102195.94;5076339;28;20048;-62
2022/04/03 03:05:32;;;;;;;6.40;3.33;;;;;;;3.91;46.27;102195.97;5075242;28;20044;-62
2022/04/03 03:07:59;;;;;;;6.43;3.55;;;;;;;3.91;46.33;102209.25;5074957;28;20064;-62
2022/04/03 03:10:25;;;;;;;6.50;3.90;;;;;;;3.89;46.32;102195.13;5072584;28;20045;-62
2022/04/03 03:12:52;;;;;;;9.50;4.47;;;;;;;3.88;46.41;102206.66;5074015;28;20044;-63
2022/04/03 03:15:19;;;;;;;5.10;3.83;;;;;;;3.85;46.25;102210.28;5075300;28;20037;-63
2022/04/03 03:17:46;;;;;;;5.85;3.47;;;;;;;3.83;46.32;102210.31;5074759;28;20153;-62
2022/04/03 03:20:19;;;;;;;5.55;3.78;;;;;;;3.82;46.31;102202.38;5075101;28;20045;-63
2022/04/03 03:22:46;;;;;;;8.65;4.03;;;;;;;3.82;46.20;102205.91;5074768;28;20055;-63
2022/04/03 03:25:13;;;;;;;6.05;4.05;;;;;;;3.81;46.30;102208.59;5074871;28;20047;-63
2022/04/03 03:27:39;;;;;;;6.40;3.95;;;;;;;3.78;46.20;102208.66;5074028;28;20517;-63
2022/04/03 03:30:08;;;;;;;5.57;4.00;;;;;;;3.76;46.32;102208.69;5073659;28;20036;-63
2022/04/03 03:32:36;;;;;;;5.72;3.28;;;;;;;3.75;46.40;102203.41;5074594;28;20402;-63
2022/04/03 03:35:04;;;;;;;6.50;3.70;;;;;;;3.73;46.39;102207.88;5074639;28;20548;-63
2022/04/03 03:37:31;;;;;;;7.00;4.00;;;;;;;3.71;46.19;102213.19;5074167;28;20493;-62
2022/04/03 03:39:57;;;;;;;5.50;4.10;;;;;;;3.69;46.35;102215.00;5074623;28;20051;-62
2022/04/03 03:42:24;;;;;;;5.63;4.00;;;;;;;3.68;46.43;102221.22;5056570;28;20045;-62
2022/04/03 03:44:51;;;;;;;8.05;4.18;;;;;;;3.66;46.44;102217.72;5074305;28;20123;-63
2022/04/03 03:47:17;;;;;;;6.35;4.50;;;;;;;3.64;46.55;102221.31;5055520;28;20075;-63
2022/04/03 03:49:44;;;;;;;7.38;4.45;;;;;;;3.63;46.74;102216.91;5074309;28;20036;-63
2022/04/03 03:52:12;;;;;;;6.63;4.13;;;;;;;3.61;46.33;102216.06;5074433;28;20045;-64
2022/04/03 03:54:38;;;;;;;7.45;4.30;;;;;;;3.58;46.45;102217.00;5074276;28;20115;-63
2022/04/03 03:57:05;;;;;;;5.22;4.30;;;;;;;3.56;46.69;102209.97;5074043;28;20090;-63
2022/04/03 03:59:31;;;;;;;5.32;4.30;;;;;;;3.55;46.58;102206.44;5073907;28;20131;-62
2022/04/03 04:01:58;;;;;;;6.85;4.45;;;;;;;3.55;46.48;102210.88;5073962;28;20075;-63
2022/04/03 04:04:25;;;;;;;8.07;4.80;;;;;;;3.54;46.57;102204.69;5073996;28;20050;-63
2022/04/03 04:06:52;;;;;;;6.57;3.90;;;;;;;3.52;46.73;102206.50;5072019;28;20382;-63
2022/04/03 04:09:19;;;;;;;9.40;4.68;;;;;;;3.50;46.54;102205.66;5073149;28;20040;-64
2022/04/03 04:11:45;;;;;;;7.78;4.35;;;;;;;3.47;46.99;102217.22;5074287;28;20040;-64
2022/04/03 04:14:12;;;;;;;6.95;4.18;;;;;;;3.47;46.91;102208.38;5077442;28;20040;-63
2022/04/03 04:16:39;;;;;;;6.25;4.15;;;;;;;3.46;46.78;102206.63;5074999;28;20052;-64
2022/04/03 04:19:06;;;;;;;6.20;3.97;;;;;;;3.46;46.88;102207.50;5072390;28;20508;-63
2022/04/03 04:21:34;;;;;;;7.78;4.53;;;;;;;3.45;46.78;102204.88;5073504;28;20037;-63
2022/04/03 04:24:01;;;;;;;6.38;4.22;;;;;;;3.42;46.94;102203.16;5073969;28;20041;-63
2022/04/03 04:26:27;;;;;;;8.25;4.30;;;;;;;3.38;46.93;102204.13;5073879;28;20075;-64
2022/04/03 04:28:54;;;;;;;5.55;4.00;;;;;;;3.34;46.78;102212.19;5072592;28;20150;-63
2022/04/03 04:31:20;;;;;;;5.97;4.38;;;;;;;3.32;46.93;102221.97;5073628;28;20122;-63
2022/04/03 04:33:47;;;;;;;7.53;4.10;;;;;;;3.29;46.86;102225.53;5073323;28;20462;-64
2022/04/03 04:36:14;;;;;;;8.10;5.00;;;;;;;3.25;47.03;102229.16;5064044;28;20120;-64
2022/04/03 04:38:41;;;;;;;7.00;4.30;;;;;;;3.20;47.09;102225.72;5035352;28;20049;-63
2022/04/03 04:41:07;;;;;;;5.00;4.18;;;;;;;3.18;47.16;102235.50;5062889;28;20039;-64
2022/04/03 04:43:34;;;;;;;8.07;5.20;;;;;;;3.17;47.03;102237.28;5073483;28;20082;-63
2022/04/03 04:46:00;;;;;;;6.55;4.63;;;;;;;3.17;47.32;102234.63;5073350;28;20044;-64
2022/04/03 04:48:27;;;;;;;7.88;4.63;;;;;;;3.16;47.25;102238.16;5073279;28;20414;-64
2022/04/03 04:50:53;;;;;;;7.28;4.50;;;;;;;3.15;47.18;102233.75;5073376;28;20051;-64
2022/04/03 04:53:21;;;;;;;10.93;5.07;;;;;;;3.14;47.29;102234.66;5073328;28;20124;-64
2022/04/03 04:55:47;;;;;;;6.53;4.82;;;;;;;3.14;47.10;102242.63;5073142;28;20051;-64
2022/04/03 04:58:14;;;;;;;11.63;4.60;;;;;;;3.12;47.08;102233.81;5072907;28;20048;-64
2022/04/03 05:00:41;;;;;;;7.22;4.78;;;;;;;3.11;47.28;102237.38;5073066;28;20047;-64
2022/04/03 05:03:08;;;;;;;7.40;5.13;;;;;;;3.08;47.21;102240.09;5073082;28;20048;-64
2022/04/03 05:05:35;;;;;;;6.43;5.05;;;;;;;3.05;47.44;102249.88;5038709;28;20040;-63
2022/04/03 05:08:02;;;;;;;10.05;4.43;;;;;;;3.00;47.45;102243.78;5054169;28;20058;-64
2022/04/03 05:10:31;;;;;;;9.32;4.75;;;;;;;2.96;47.19;102245.59;5055181;28;20383;-63
2022/04/03 05:12:59;;;;;;;6.38;4.40;;;;;;;2.91;47.46;102249.22;5073092;28;20041;-64
2022/04/03 05:15:28;;;;;;;8.23;4.80;;;;;;;2.86;47.47;102249.28;5073187;28;20046;-64
2022/04/03 05:17:55;;;;;;;8.00;4.95;;;;;;;2.83;47.47;102249.34;5071566;28;20490;-64
2022/04/03 05:20:22;;;;;;;7.90;4.90;;;;;;;2.82;47.64;102255.56;5072426;28;20432;-64
2022/04/03 05:22:48;;;;;;;7.03;4.93;;;;;;;2.81;47.59;102257.34;5072970;28;20405;-64
2022/04/03 05:25:15;;;;;;;8.45;4.50;;;;;;;2.82;47.63;102255.56;5055225;28;20071;-63
2022/04/03 05:27:42;;;;;;;6.03;4.57;;;;;;;2.84;47.96;102253.75;5072667;28;20044;-63
2022/04/03 05:30:10;;;;;;;6.25;4.85;;;;;;;2.87;47.91;102256.34;5072939;28;20582;-63
2022/04/03 05:32:36;;;;;;;6.95;4.88;;;;;;;2.90;48.07;102261.59;5072900;28;20119;-64
2022/04/03 05:35:05;;;;;;;7.18;5.53;;;;;;;2.92;48.00;102257.16;5073565;28;20045;-64
2022/04/03 05:37:37;;;;;;;6.55;4.40;;;;;;;2.95;48.15;102259.75;5070419;28;20274;-64
2022/04/03 05:40:05;;;;;;;7.82;4.53;;;;;;;2.98;48.14;102258.84;5075686;28;20063;-64
2022/04/03 05:42:34;;;;;;;5.80;4.50;;;;;;;3.00;48.26;102265.00;5076649;28;20060;-64
2022/04/03 05:45:01;;;;;;;6.85;4.40;;;;;;;3.02;48.38;102269.41;5076799;28;20079;-64
2022/04/03 05:47:28;;;;;;;6.15;4.85;;;;;;;3.04;48.52;102259.63;5058916;28;20044;-64
2022/04/03 05:49:54;;;;;;;8.15;4.70;;;;;;;3.07;48.32;102256.91;5076727;28;20378;-64
2022/04/03 05:52:21;;;;;;;7.47;4.57;;;;;;;3.07;48.48;102264.88;5076499;28;20032;-64
2022/04/03 05:54:47;;;;;;;6.85;4.90;;;;;;;3.08;48.60;102261.31;5076054;28;20371;-64
2022/04/03 05:57:14;;;;;;;7.95;4.88;;;;;;;3.11;48.77;102263.03;5076142;28;20131;-64
2022/04/03 05:59:40;;;;;;;9.93;4.70;;;;;;;3.11;48.93;102265.69;5076337;28;20045;-64
2022/04/03 06:02:07;;;;;;;8.48;5.30;;;;;;;3.13;48.90;102270.09;5076352;28;20375;-64
2022/04/03 06:04:34;;;;;;;6.10;4.65;;;;;;;3.16;49.00;102264.72;5076391;28;20047;-65
2022/04/03 06:07:01;;;;;;;7.38;4.72;;;;;;;3.20;49.13;102268.19;5076588;28;20486;-64
2022/04/03 06:09:27;;;;;;;7.30;4.93;;;;;;;3.22;49.11;102274.34;5075694;28;20041;-65
2022/04/03 06:11:54;;;;;;;6.72;4.80;;;;;;;3.23;49.32;102277.88;5076284;28;20072;-64
2022/04/03 06:14:20;;;;;;;8.10;5.25;;;;;;;3.26;49.51;102275.16;5074070;28;20032;-64
2022/04/03 06:16:48;;;;;;;6.63;4.72;;;;;;;3.34;49.66;102278.56;5076226;28;20494;-65
2022/04/03 06:19:14;;;;;;;7.47;5.13;;;;;;;3.41;49.62;102275.75;5075936;28;20401;-64
2022/04/03 06:21:41;;;;;;;6.55;5.05;;;;;;;3.51;49.79;102276.47;5075186;28;20040;-64
2022/04/03 06:24:07;;;;;;;7.60;5.38;;;;;;;3.61;49.85;102275.38;5076095;28;20394;-64
2022/04/03 06:26:34;;;;;;;8.05;4.95;;;;;;;3.70;49.98;102275.19;5075555;28;20391;-63
2022/04/03 06:29:01;;;;;;;9.68;5.05;;;;;;;3.78;49.97;102281.28;5075627;28;20133;-64
2022/04/03 06:31:28;;;;;;;6.15;5.03;;;;;;;3.87;50.07;102276.69;5058235;28;20567;-62
2022/04/03 06:33:55;;;;;;;7.53;5.15;;;;;;;3.96;50.05;102280.03;5057975;28;20449;-63
2022/04/03 06:36:21;;;;;;;8.52;5.60;;;;;;;4.04;50.11;102278.06;5039946;28;20413;-62
2022/04/03 06:38:48;;;;;;;8.75;5.90;;;;;;;4.12;50.21;102283.22;5058227;28;20044;-65
2022/04/03 06:41:14;;;;;;;9.77;5.90;;;;;;;4.17;50.06;102283.13;5075183;28;20115;-64
2022/04/03 06:43:41;;;;;;;10.43;6.22;;;;;;;4.23;50.05;102283.00;5074989;28;20510;-64
2022/04/03 06:46:08;;;;;;;9.43;5.80;;;;;;;4.28;50.23;102289.09;5075123;28;20155;-63
2022/04/03 06:48:34;;;;;;;8.05;6.35;;;;;;;4.32;50.12;102277.47;5055200;28;20124;-64
2022/04/03 06:51:01;;;;;;;9.15;5.35;;;;;;;4.37;50.38;102273.81;5074757;28;20049;-64
2022/04/03 06:53:28;;;;;;;7.22;5.35;;;;;;;4.45;50.33;102276.28;5075367;28;20487;-64
2022/04/03 06:55:55;;;;;;;8.55;5.57;;;;;;;4.53;50.30;102278.81;5075282;28;20180;-64
2022/04/03 06:58:21;;;;;;;9.77;5.50;;;;;;;4.61;50.40;102283.03;5039672;28;20048;-64
2022/04/03 07:00:52;;;;;;;8.68;5.28;;;;;;;4.71;50.55;102281.03;5075577;28;20084;-63
2022/04/03 07:03:26;;;;;;;9.90;5.80;;;;;;;4.79;50.19;102281.72;5075259;28;20044;-64
2022/04/03 07:05:53;;;;;;;10.82;6.20;;;;;;;4.89;50.74;102285.03;5075166;28;20424;-64
2022/04/03 07:08:20;;;;;;;8.25;6.38;;;;;;;4.97;50.76;102275.06;5072834;28;20049;-65
2022/04/03 07:10:47;;;;;;;8.07;6.22;;;;;;;5.07;50.86;102280.13;5055233;28;20184;-64
2022/04/03 07:13:13;;;;;;;9.45;7.45;;;;;;;5.23;51.02;102279.75;5037448;28;20041;-64
2022/04/03 07:15:40;;;;;;;8.48;6.30;;;;;;;5.39;50.91;102281.97;5070355;28;20052;-63
2022/04/03 07:18:07;;;;;;;13.40;7.60;;;;;;;5.60;51.23;102282.31;5074839;28;20049;-64
2022/04/03 07:20:34;;;;;;;12.95;8.65;;;;;;;5.80;51.41;102279.09;5074118;28;20036;-64
2022/04/03 07:23:01;;;;;;;13.45;9.30;;;;;;;5.99;51.34;102285.69;5073691;28;20526;-64
2022/04/03 07:25:28;;;;;;;14.82;9.45;;;;;;;6.16;51.34;102285.19;5056962;28;20391;-65
2022/04/03 07:27:54;;;;;;;11.93;9.13;;;;;;;6.33;51.28;102283.78;5039787;28;20036;-64
2022/04/03 07:30:21;;;;;;;12.63;9.35;;;;;;;6.51;51.15;102281.44;5074708;28;20048;-61
2022/04/03 07:32:47;;;;;;;13.50;9.38;;;;;;;6.73;51.32;102289.69;5075050;28;20063;-62
2022/04/03 07:35:14;;;;;;;12.13;9.40;;;;;;;6.98;51.26;102279.94;5074957;28;20539;-61
2022/04/03 07:37:41;;;;;;;13.77;9.82;;;;;;;7.27;51.33;102285.19;5074413;28;20563;-62
2022/04/03 07:40:09;;;;;;;13.48;9.15;;;;;;;7.58;51.30;102290.34;5074040;28;20076;-61
2022/04/03 07:42:36;;;;;;;11.90;8.63;;;;;;;7.92;51.32;102286.44;5040276;28;20044;-63
2022/04/03 07:45:04;;;;;;;11.13;7.78;;;;;;;8.20;51.03;102283.63;5073794;28;20516;-64
2022/04/03 07:47:32;;;;;;;10.00;7.82;;;;;;;8.47;50.79;102295.09;5045303;28;20092;-63
2022/04/03 07:49:59;;;;;;;11.52;7.82;;;;;;;8.68;50.68;102294.25;5073975;28;20513;-62
2022/04/03 07:52:25;;;;;;;6.72;6.05;;;;;;;8.85;50.38;102296.25;5074103;28;20040;-62
2022/04/03 07:54:52;;;;;;;6.25;5.38;;;;;;;8.98;50.04;102292.16;5074564;28;20044;-61
2022/04/03 07:57:19;;;;;;;9.38;5.10;;;;;;;9.07;49.85;102294.47;5056205;28;20043;-62
2022/04/03 07:59:46;;;;;;;6.93;5.32;;;;;;;9.15;49.42;102292.34;5073437;28;20083;-61
2022/04/03 08:02:13;;;;;;;8.27;5.32;;;;;;;9.30;49.23;102301.53;5074165;28;20433;-62
2022/04/03 08:04:40;;;;;;;8.60;5.03;;;;;;;9.40;49.10;102293.97;5074127;28;20044;-61
2022/04/03 08:07:07;;;;;;;8.32;5.38;;;;;;;9.48;48.90;102294.50;5074347;28;20040;-61
2022/04/03 08:09:33;;;;;;;7.40;5.38;;;;;;;9.57;48.85;102303.03;5073662;28;20119;-62
2022/04/03 08:12:00;;;;;;;8.75;5.03;;;;;;;9.69;48.67;102300.78;5073853;28;20086;-61
2022/04/03 08:14:27;;;;;;;6.20;5.10;;;;;;;9.84;48.66;102290.22;5073926;28;20453;-61
2022/04/03 08:16:55;;;;;;;5.38;4.30;;;;;;;9.98;48.42;102300.34;5073500;28;20037;-62
2022/04/03 08:19:22;;;;;;;6.40;4.22;;;;;;;10.08;48.26;102304.34;5073541;28;20048;-63
2022/04/03 08:21:48;;;;;;;3.83;3.40;;;;;;;10.16;48.21;102306.66;5073804;28;20406;-62
2022/04/03 08:24:15;;;;;;;5.20;3.38;;;;;;;10.26;47.96;102296.41;5056190;28;20040;-63
2022/04/03 08:26:43;;;;;;;5.18;2.95;;;;;;;10.38;47.79;102304.75;5073939;28;20044;-65
2022/04/03 08:29:09;;;;;;;5.68;2.83;;;;;;;10.55;47.53;102303.13;5072615;28;20460;-64
2022/04/03 08:31:36;;;;;;;2.88;2.22;;;;;;;10.69;47.40;102304.19;5072827;28;20041;-65
2022/04/03 08:34:03;;;;;;;3.95;2.15;;;;;;;10.89;47.02;102307.72;5073539;28;20040;-64
2022/04/03 08:36:29;;;;;;;3.30;2.00;;;;;;;11.00;46.70;102295.50;5073486;28;20075;-64
2022/04/03 08:38:56;;;;;;;2.95;2.20;;;;;;;11.17;46.59;102305.44;5055457;28;20071;-65
2022/04/03 08:41:23;;;;;;;3.85;2.30;;;;;;;11.36;46.52;102298.19;5055830;28;20409;-65
2022/04/03 08:43:49;;;;;;;3.75;2.00;;;;;;;11.54;46.35;102298.19;5055894;28;20072;-65
2022/04/03 08:46:16;;;;;;;3.97;2.13;;;;;;;11.69;46.53;102300.06;5072741;28;20040;-65
2022/04/03 08:48:45;;;;;;;3.25;1.55;;;;;;;11.78;45.60;102302.31;5073012;28;20044;-64
2022/04/03 08:51:12;;;;;;;3.30;2.10;;;;;;;11.80;45.32;102308.47;5073348;28;20120;-65
2022/04/03 08:53:39;;;;;;;3.45;2.20;;;;;;;11.84;45.03;102301.97;5073027;28;20041;-65
2022/04/03 08:56:06;;;;;;;4.53;2.00;;;;;;;11.91;44.89;102299.84;5055574;28;20048;-65
2022/04/03 08:58:33;;;;;;;2.83;1.83;;;;;;;11.95;44.80;102307.69;5073008;28;20509;-63
2022/04/03 09:01:01;;;;;;;3.58;1.92;;;;;;;12.05;44.83;102300.84;5073088;28;20083;-64
2022/04/03 09:03:27;;;;;;;3.15;1.70;;;;;;;12.20;44.56;102301.84;5073260;28;20041;-63
2022/04/03 09:06:11;;;;;;;3.75;1.80;;;;;;;12.30;44.31;102305.78;5054682;28;20036;-63
2022/04/03 09:08:38;;;;;;;4.95;2.17;;;;;;;12.39;44.06;102297.19;5073096;28;20453;-64
2022/04/03 09:11:05;;;;;;;2.70;1.90;;;;;;;12.49;44.12;102300.22;5072442;28;20486;-64
2022/04/03 09:13:32;;;;;;;2.80;1.90;;;;;;;12.58;43.69;102296.16;5072589;28;20555;-63
2022/04/03 09:15:59;;;;;;;3.80;1.45;;;;;;;12.65;43.73;102297.56;5073565;28;20406;-64
2022/04/03 09:18:46;;;;;;;2.97;1.83;;;;;;;12.75;43.31;102297.91;5072983;28;20046;-63
2022/04/03 09:21:23;;;;;;;3.95;2.25;;;;;;;12.88;43.34;102283.63;5055334;28;20452;-64
2022/04/03 09:23:57;;;;;;;2.17;1.85;;;;;;;13.01;43.08;102283.78;5073005;28;20038;-64
2022/04/03 09:26:24;;;;;;;2.78;1.77;;;;;;;13.08;43.15;102279.78;5059480;28;20103;-64
2022/04/03 09:29:05;;;;;;;3.38;1.70;;;;;;;13.00;42.26;102277.53;5052706;28;20562;-64
2022/04/03 09:31:32;;;;;;;3.00;2.28;;;;;;;12.83;41.90;102282.16;5063721;28;20461;-63
2022/04/03 09:34:00;;;;;;;2.33;1.80;;;;;;;12.66;41.82;102284.00;5072952;28;20048;-65
2022/04/03 09:36:30;;;;;;;2.88;1.65;;;;;;;12.59;41.76;102279.88;5073166;28;20045;-64
2022/04/03 09:39:27;;;;;;;3.45;2.15;;;;;;;12.57;42.07;102276.41;5071792;28;20115;-64
2022/04/03 09:42:03;;;;;;;3.58;1.73;;;;;;;12.55;41.74;102281.00;5052819;28;20069;-64
2022/04/03 09:44:37;;;;;;;2.13;1.63;;;;;;;12.46;41.77;102277.97;5071814;28;20041;-64
2022/04/03 09:47:33;;;;;;;2.25;1.67;;;;;;;12.36;41.70;102281.19;5052950;28;20132;-64
2022/04/03 09:50:03;;;;;;;2.22;1.80;;;;;;;12.38;41.75;102273.88;5052985;28;20071;-64
2022/04/03 09:52:45;;;;;;;4.40;1.85;;;;;;;12.39;41.72;102266.66;5052634;28;20083;-64
2022/04/03 09:55:21;;;;;;;5.75;1.88;;;;;;;12.44;41.70;102256.50;5035310;28;20051;-64
2022/04/03 09:57:48;;;;;;;;;;;;;;;12.54;41.69;102264.94;5073174;28;20454;-63
2022/04/03 10:00:41;;;;;;;3.70;1.67;;;;;;;12.72;41.69;102261.22;5072670;28;19920;-64
2022/04/03 10:03:10;;;;;;;3.47;1.90;;;;;;;12.81;41.39;102254.44;5072284;28;20044;-64
2022/04/03 10:05:37;;;;;;;3.10;1.90;;;;;;;12.85;41.38;102251.47;5078058;28;20051;-64
2022/04/03 10:08:05;;;;;;;4.40;1.45;;;;;;;12.85;41.28;102250.59;5055336;28;20563;-64
2022/04/03 10:10:34;;;;;;;1.65;1.23;;;;;;;12.83;40.98;102250.69;5054151;28;20067;-64
2022/04/03 10:13:03;;;;;;;5.03;1.35;;;;;;;12.81;40.82;102249.03;5054531;28;20072;-64
2022/04/03 10:15:30;;;;;;;2.38;1.25;;;;;;;12.77;40.55;102256.44;5072520;28;20079;-65
2022/04/03 10:17:56;;;;;;;6.20;1.35;;;;;;;12.68;40.63;102240.78;5055092;28;20108;-64
2022/04/03 10:20:30;;;;;;;2.50;1.05;;;;;;;12.57;40.41;102240.50;5072180;28;20471;-66
2022/04/03 10:23:10;;;;;;;4.63;2.65;;;;;;;12.46;40.36;102248.34;5056649;28;20074;-63
2022/04/03 10:25:41;;;;;;;2.15;1.20;;;;;;;12.46;40.61;102234.88;5075549;28;20057;-63
2022/04/03 10:28:10;;;;;;;2.22;1.30;;;;;;;12.59;40.76;102236.75;5075862;28;20483;-63
2022/04/03 10:30:39;;;;;;;2.83;1.35;;;;;;;12.81;40.66;102231.03;5075837;28;20379;-63
2022/04/03 10:33:06;;;;;;;2.08;1.15;;;;;;;13.00;40.52;102225.41;5075952;28;20044;-63
2022/04/03 10:35:32;;;;;;;1.42;1.00;;;;;;;13.14;40.36;102228.16;5075868;28;20442;-63
2022/04/03 10:38:03;;;;;;;1.98;1.10;;;;;;;13.23;40.04;102233.03;5074627;28;20032;-64
2022/04/03 10:40:34;;;;;;;2.97;1.30;;;;;;;13.33;40.16;102225.25;5074687;28;20051;-62
2022/04/03 10:43:06;;;;;;;2.92;0.75;;;;;;;13.35;39.52;102226.91;5075922;28;20393;-63
2022/04/03 10:45:35;;;;;;;3.22;1.25;;;;;;;13.33;39.60;102228.81;5041526;28;20421;-63
2022/04/03 10:48:19;;;;;;;2.22;1.00;;;;;;;13.33;39.16;102222.56;5075632;28;20045;-63
2022/04/03 10:51:06;;;;;;;1.92;1.20;;;;;;;13.34;39.05;102217.06;5057595;28;20040;-63
2022/04/03 10:53:36;;;;;;;3.83;1.33;;;;;;;13.38;39.01;102211.47;5075730;28;20063;-64
2022/04/03 10:56:09;;;;;;;3.45;1.10;;;;;;;13.39;39.14;102208.72;5055096;28;20044;-64
2022/04/03 10:58:46;;;;;;;3.53;1.33;;;;;;;13.44;38.90;102206.63;5075359;28;20478;-62
2022/04/03 11:01:44;;;;;;;2.22;1.05;;;;;;;13.50;38.82;102208.06;5075089;28;20076;-63
2022/04/03 11:04:11;;;;;;;2.00;1.10;;;;;;;13.56;39.00;102199.59;5037720;28;20057;-63
2022/04/03 11:06:40;;;;;;;3.50;1.60;;;;;;;13.60;38.87;102195.72;5065392;28;20047;-63
2022/04/03 11:09:14;;;;;;;3.70;1.40;;;;;;;13.66;38.87;102198.06;5074848;28;20041;-63
2022/04/03 11:11:59;;;;;;;2.28;1.58;;;;;;;13.63;38.52;102199.13;5074969;28;20399;-64
2022/04/03 11:14:52;;;;;;;2.40;1.27;;;;;;;13.58;38.29;102201.22;5073926;28;20107;-63
2022/04/03 11:17:48;;;;;;;1.92;1.05;;;;;;;13.54;38.45;102191.59;5073941;28;20486;-63
2022/04/03 11:20:37;;;;;;;2.88;1.02;;;;;;;13.52;38.51;102192.66;5069657;28;20044;-64
2022/04/03 11:23:07;;;;;;;2.45;1.40;;;;;;;13.48;38.38;102197.38;5074172;28;20132;-62
2022/04/03 11:25:33;;;;;;;2.33;1.00;;;;;;;13.44;38.35;102193.13;5055989;28;20036;-64
2022/04/03 11:28:02;;;;;;;3.05;1.10;;;;;;;13.42;38.44;102194.19;5073022;28;20486;-63
2022/04/03 11:30:28;;;;;;;5.38;1.60;;;;;;;13.42;38.38;102186.09;5075052;28;20112;-63
2022/04/03 11:32:56;;;;;;;2.40;1.10;;;;;;;13.36;38.33;102185.47;5056498;28;20060;-63
2022/04/03 11:35:34;;;;;;;3.75;1.10;;;;;;;13.30;38.09;102183.16;5073987;28;20429;-64
2022/04/03 11:38:01;;;;;;;1.90;0.95;;;;;;;13.28;38.23;102182.38;5074096;28;20032;-64